Time;durP1;ratioP1;P1;durP2;ratioP2;P2;SDS_P1;SDS_P2;PMS_P1;PMS_P2;Temp;Humidity;BMP_temperature;BMP_pressure;BME280_temperature;BME280_humidity;BME280_pressure;Samples;Min_cycle;Max_cycle;Signal;HPM_P1;HPM_P2
2023/04/08 00:00:10;;;;;;;18.88;8.30;;;5.20;99.90;;;;;;5036902;28;20041;-78
2023/04/08 00:02:36;;;;;;;14.10;7.07;;;5.20;99.90;;;;;;5043716;28;20052;-77
2023/04/08 00:05:02;;;;;;;11.63;6.72;;;5.20;99.90;;;;;;5029354;28;20058;-78
2023/04/08 00:07:28;;;;;;;15.40;8.43;;;5.20;99.90;;;;;;5038944;28;20090;-77
2023/04/08 00:09:54;;;;;;;14.23;7.97;;;5.20;99.90;;;;;;5046882;28;20088;-78
2023/04/08 00:12:20;;;;;;;17.88;8.80;;;5.20;99.90;;;;;;5018531;28;20036;-77
2023/04/08 00:14:46;;;;;;;14.98;8.05;;;5.30;99.90;;;;;;5039119;28;20040;-77
2023/04/08 00:17:11;;;;;;;17.63;9.10;;;5.10;99.90;;;;;;5045694;28;20049;-78
2023/04/08 00:19:37;;;;;;;13.73;8.60;;;5.10;99.90;;;;;;5052939;28;20081;-78
2023/04/08 00:22:03;;;;;;;15.90;8.88;;;5.80;99.90;;;;;;5035077;28;20045;-78
2023/04/08 00:24:29;;;;;;;13.95;7.97;;;5.10;99.90;;;;;;5049855;28;20028;-77
2023/04/08 00:26:55;;;;;;;15.93;8.05;;;5.10;99.90;;;;;;5022847;28;20820;-78
2023/04/08 00:29:21;;;;;;;15.07;9.13;;;5.30;99.90;;;;;;5025694;28;20040;-77
2023/04/08 00:31:46;;;;;;;18.42;9.20;;;5.00;99.90;;;;;;5040550;28;20131;-77
2023/04/08 00:34:12;;;;;;;13.63;8.80;;;5.00;99.90;;;;;;5043593;28;20033;-77
2023/04/08 00:36:39;;;;;;;15.32;9.10;;;4.90;99.90;;;;;;5058133;28;20068;-77
2023/04/08 00:39:05;;;;;;;16.88;9.55;;;4.90;99.90;;;;;;5041919;28;20043;-77
2023/04/08 00:41:34;;;;;;;17.73;9.32;;;4.90;99.90;;;;;;5043288;28;20056;-78
2023/04/08 00:44:00;;;;;;;15.23;9.07;;;4.90;99.90;;;;;;5042102;28;20482;-77
2023/04/08 00:46:27;;;;;;;15.85;9.63;;;4.90;99.90;;;;;;5058803;28;20053;-77
2023/04/08 00:48:53;;;;;;;16.85;9.57;;;4.90;99.90;;;;;;5054604;28;20400;-77
2023/04/08 00:51:20;;;;;;;15.77;9.73;;;4.80;99.90;;;;;;5044891;28;20583;-77
2023/04/08 00:53:45;;;;;;;16.88;9.55;;;4.80;99.90;;;;;;5038070;28;20111;-78
2023/04/08 00:56:11;;;;;;;16.60;10.13;;;4.80;99.90;;;;;;5043930;28;20167;-78
2023/04/08 00:58:37;;;;;;;15.27;9.65;;;4.80;99.90;;;;;;5054237;28;20459;-77
2023/04/08 01:01:09;;;;;;;16.52;9.77;;;4.70;99.90;;;;;;5043141;28;20052;-79
2023/04/08 01:03:57;;;;;;;18.30;9.88;;;4.70;99.90;;;;;;5042809;28;20116;-78
2023/04/08 01:06:53;;;;;;;15.88;10.00;;;4.70;99.90;;;;;;5038857;28;20467;-78
2023/04/08 01:09:22;;;;;;;18.17;10.80;;;4.70;99.90;;;;;;5047495;28;20051;-78
2023/04/08 01:11:50;;;;;;;16.13;10.20;;;4.70;99.90;;;;;;5038148;28;20073;-78
2023/04/08 01:14:20;;;;;;;17.30;10.43;;;4.70;99.90;;;;;;5038087;28;20045;-77
2023/04/08 01:16:46;;;;;;;16.85;10.55;;;4.70;99.90;;;;;;5042708;28;20127;-77
2023/04/08 01:19:29;;;;;;;16.23;10.35;;;4.60;99.90;;;;;;5045960;28;20041;-78
2023/04/08 01:22:04;;;;;;;16.45;10.48;;;4.60;99.90;;;;;;5047927;28;20036;-78
2023/04/08 01:24:35;;;;;;;20.08;10.45;;;4.60;99.90;;;;;;5042436;28;20094;-78
2023/04/08 01:27:02;;;;;;;15.07;9.95;;;4.60;99.90;;;;;;5042727;28;20051;-79
2023/04/08 01:29:30;;;;;;;19.55;11.38;;;4.80;99.90;;;;;;5029105;28;20045;-78
2023/04/08 01:31:56;;;;;;;17.73;10.90;;;4.60;99.90;;;;;;5035384;28;20062;-78
2023/04/08 01:34:24;;;;;;;19.42;11.02;;;4.50;99.90;;;;;;5038371;28;20056;-78
2023/04/08 01:36:50;;;;;;;18.55;11.30;;;4.50;99.90;;;;;;5042874;28;20048;-78
2023/04/08 01:39:20;;;;;;;17.42;11.60;;;4.90;99.90;;;;;;5033581;28;20422;-78
2023/04/08 01:41:47;;;;;;;20.08;11.50;;;4.60;99.90;;;;;;5032543;28;20044;-78
2023/04/08 01:44:14;;;;;;;18.35;11.10;;;4.50;99.90;;;;;;5043296;28;20047;-78
2023/04/08 01:46:41;;;;;;;17.77;11.40;;;4.50;99.90;;;;;;5048498;28;20040;-78
2023/04/08 01:49:08;;;;;;;18.92;12.10;;;5.40;99.90;;;;;;5044846;28;20494;-78
2023/04/08 01:51:36;;;;;;;19.98;12.10;;;4.50;99.90;;;;;;5043369;28;20216;-78
2023/04/08 01:54:02;;;;;;;19.20;12.05;;;4.90;99.90;;;;;;5015521;28;20311;-79
2023/04/08 01:56:31;;;;;;;22.05;13.32;;;4.40;99.90;;;;;;5032727;28;20432;-78
2023/04/08 01:59:00;;;;;;;19.88;12.05;;;4.40;99.90;;;;;;5040957;28;20044;-79
2023/04/08 02:01:28;;;;;;;22.23;12.25;;;4.30;99.90;;;;;;5057942;28;20168;-79
2023/04/08 02:03:56;;;;;;;21.00;13.27;;;4.30;99.90;;;;;;5024988;28;20029;-78
2023/04/08 02:06:22;;;;;;;23.75;13.90;;;4.30;99.90;;;;;;5059290;28;20047;-78
2023/04/08 02:08:48;;;;;;;19.30;13.10;;;4.50;99.90;;;;;;5038528;28;20049;-78
2023/04/08 02:11:15;;;;;;;21.55;13.80;;;4.30;99.90;;;;;;5056826;28;20036;-78
2023/04/08 02:13:40;;;;;;;23.67;13.07;;;4.30;99.90;;;;;;5040701;28;20399;-78
2023/04/08 02:16:14;;;;;;;22.88;12.48;;;4.30;99.90;;;;;;5046303;28;20056;-78
2023/04/08 02:18:45;;;;;;;21.83;13.13;;;4.30;99.90;;;;;;5042574;28;20124;-78
2023/04/08 02:21:14;;;;;;;20.67;13.37;;;4.20;99.90;;;;;;5043373;28;20048;-77
2023/04/08 02:23:45;;;;;;;23.45;13.07;;;4.20;99.90;;;;;;5029592;28;20517;-78
2023/04/08 02:26:18;;;;;;;19.77;12.20;;;4.20;99.90;;;;;;5042721;28;20425;-77
2023/04/08 02:28:44;;;;;;;19.23;12.57;;;4.80;99.90;;;;;;5041133;28;20315;-72
2023/04/08 02:31:12;;;;;;;19.63;11.32;;;4.10;99.90;;;;;;5042493;28;20073;-76
2023/04/08 02:33:39;;;;;;;18.08;11.80;;;4.60;99.90;;;;;;5043572;28;20041;-78
2023/04/08 02:36:05;;;;;;;17.15;10.00;;;4.10;99.90;;;;;;5056449;28;20104;-77
2023/04/08 02:38:31;;;;;;;17.50;11.40;;;4.00;99.90;;;;;;5045001;28;20582;-77
2023/04/08 02:40:57;;;;;;;20.35;11.52;;;4.00;99.90;;;;;;5066954;28;20056;-78
2023/04/08 02:43:31;;;;;;;18.85;11.18;;;4.00;99.90;;;;;;5049141;28;20123;-78
2023/04/08 02:46:02;;;;;;;16.38;10.50;;;3.90;99.90;;;;;;5051791;28;20068;-77
2023/04/08 02:48:28;;;;;;;17.33;11.27;;;3.90;99.90;;;;;;5043149;28;20040;-77
2023/04/08 02:50:54;;;;;;;18.58;10.80;;;3.80;99.90;;;;;;5036776;28;20428;-78
2023/04/08 02:53:22;;;;;;;22.98;11.85;;;3.80;99.90;;;;;;5021535;28;20056;-78
2023/04/08 02:55:48;;;;;;;18.80;12.15;;;4.50;99.90;;;;;;5048547;28;20041;-77
2023/04/08 02:58:17;;;;;;;17.85;11.93;;;3.80;99.90;;;;;;5045957;28;20190;-77
2023/04/08 03:00:42;;;;;;;18.25;11.15;;;3.70;99.90;;;;;;5063331;28;20075;-78
2023/04/08 03:03:08;;;;;;;18.02;11.77;;;3.70;99.90;;;;;;5042321;28;20143;-78
2023/04/08 03:05:34;;;;;;;16.48;10.38;;;3.70;99.90;;;;;;5046419;28;20028;-77
2023/04/08 03:08:00;;;;;;;17.15;10.52;;;4.60;99.90;;;;;;5059848;28;20115;-77
2023/04/08 03:10:26;;;;;;;16.90;11.00;;;3.50;99.90;;;;;;5058941;28;20051;-77
2023/04/08 03:12:51;;;;;;;18.75;11.25;;;3.50;99.90;;;;;;5043378;28;20048;-77
2023/04/08 03:15:17;;;;;;;18.23;10.85;;;3.40;99.90;;;;;;5045344;28;20076;-77
2023/04/08 03:17:46;;;;;;;18.13;10.18;;;3.40;99.90;;;;;;5044295;28;20036;-77
2023/04/08 03:20:12;;;;;;;17.38;10.90;;;4.20;99.90;;;;;;5047028;28;20075;-77
2023/04/08 03:22:37;;;;;;;18.42;11.70;;;3.30;99.90;;;;;;5051257;28;20489;-77
2023/04/08 03:25:03;;;;;;;20.92;12.02;;;3.80;99.90;;;;;;5059221;28;20489;-77
2023/04/08 03:27:29;;;;;;;18.10;10.82;;;3.30;99.90;;;;;;5041985;28;20135;-78
2023/04/08 03:29:56;;;;;;;17.63;11.57;;;3.30;99.90;;;;;;5043175;28;20033;-77
2023/04/08 03:32:22;;;;;;;18.73;10.93;;;3.30;99.90;;;;;;5043291;28;20445;-77
2023/04/08 03:34:50;;;;;;;20.00;12.13;;;3.30;99.90;;;;;;5050794;28;20036;-77
2023/04/08 03:37:16;;;;;;;19.35;12.65;;;4.10;99.90;;;;;;5023157;28;20071;-77
2023/04/08 03:39:42;;;;;;;18.25;11.35;;;3.30;99.90;;;;;;5060326;28;20084;-77
2023/04/08 03:42:08;;;;;;;18.77;11.98;;;3.50;99.90;;;;;;5059088;28;20517;-77
2023/04/08 03:44:34;;;;;;;19.55;12.30;;;3.30;99.90;;;;;;5042752;28;20036;-77
2023/04/08 03:46:59;;;;;;;18.38;12.05;;;4.00;99.90;;;;;;5054789;28;20033;-78
2023/04/08 03:49:25;;;;;;;19.85;12.05;;;3.30;99.90;;;;;;5041812;28;20136;-77
2023/04/08 03:51:51;;;;;;;19.33;12.32;;;3.20;99.90;;;;;;5034516;28;20049;-77
2023/04/08 03:54:17;;;;;;;20.20;13.07;;;3.30;99.90;;;;;;5041361;28;20117;-77
2023/04/08 03:56:42;;;;;;;19.27;12.05;;;3.30;99.90;;;;;;5042596;28;20074;-77
2023/04/08 03:59:08;;;;;;;18.27;12.05;;;4.10;99.90;;;;;;5040787;28;20084;-77
2023/04/08 04:01:34;;;;;;;19.45;12.20;;;3.20;99.90;;;;;;5036794;28;20219;-77
2023/04/08 04:03:59;;;;;;;21.88;12.43;;;3.20;99.90;;;;;;5044784;28;20099;-78
2023/04/08 04:06:26;;;;;;;18.92;12.32;;;3.20;99.90;;;;;;5042227;28;20066;-77
2023/04/08 04:08:54;;;;;;;20.55;13.23;;;3.10;99.90;;;;;;5035279;28;20086;-77
2023/04/08 04:11:20;;;;;;;21.77;12.70;;;3.10;99.90;;;;;;5043058;28;20090;-77
2023/04/08 04:13:46;;;;;;;19.70;12.88;;;3.20;99.90;;;;;;5041793;28;20644;-76
2023/04/08 04:16:12;;;;;;;20.63;12.40;;;3.10;99.90;;;;;;5041860;28;20139;-77
2023/04/08 04:18:38;;;;;;;19.33;12.38;;;3.10;99.90;;;;;;5044508;28;20048;-78
2023/04/08 04:21:06;;;;;;;20.63;12.20;;;3.00;99.90;;;;;;5053579;28;20536;-77
2023/04/08 04:23:32;;;;;;;21.05;13.18;;;3.00;99.90;;;;;;5026515;28;20135;-78
2023/04/08 04:25:58;;;;;;;22.13;13.13;;;2.90;99.90;;;;;;5044960;28;20148;-77
2023/04/08 04:28:23;;;;;;;19.27;12.68;;;2.90;99.90;;;;;;5037736;28;20072;-77
2023/04/08 04:30:49;;;;;;;18.60;12.23;;;2.90;99.90;;;;;;5047583;28;20139;-77
2023/04/08 04:33:15;;;;;;;19.98;12.57;;;2.80;99.90;;;;;;5041137;28;20044;-77
2023/04/08 04:35:40;;;;;;;21.23;12.63;;;2.80;99.90;;;;;;5041774;28;20113;-77
2023/04/08 04:38:11;;;;;;;20.90;13.13;;;2.70;99.90;;;;;;5026952;28;20542;-77
2023/04/08 04:40:38;;;;;;;23.88;14.38;;;2.70;99.90;;;;;;5023065;28;20053;-77
2023/04/08 04:43:04;;;;;;;24.55;15.73;;;2.70;99.90;;;;;;5025234;28;20037;-76
2023/04/08 04:45:29;;;;;;;22.25;14.13;;;2.70;99.90;;;;;;5026625;28;20124;-77
2023/04/08 04:47:55;;;;;;;28.40;15.38;;;2.70;99.90;;;;;;5023802;28;20037;-76
2023/04/08 04:50:21;;;;;;;25.40;14.65;;;2.70;99.90;;;;;;5028038;28;20049;-76
2023/04/08 04:52:47;;;;;;;22.50;14.23;;;2.70;99.90;;;;;;5033729;28;20065;-77
2023/04/08 04:55:14;;;;;;;23.95;15.13;;;2.70;99.90;;;;;;5035850;28;20049;-77
2023/04/08 04:57:41;;;;;;;21.52;14.63;;;2.70;99.90;;;;;;5041859;28;20051;-77
2023/04/08 05:00:07;;;;;;;25.95;15.77;;;2.70;99.90;;;;;;5037186;28;20033;-77
2023/04/08 05:02:33;;;;;;;25.35;15.68;;;2.70;99.90;;;;;;5043989;28;20041;-76
2023/04/08 05:04:59;;;;;;;25.70;15.40;;;2.90;99.90;;;;;;5046032;28;20130;-76
2023/04/08 05:07:25;;;;;;;27.45;15.68;;;2.70;99.90;;;;;;5042568;28;20041;-76
2023/04/08 05:09:50;;;;;;;24.52;14.55;;;2.70;99.90;;;;;;5007905;28;20040;-77
2023/04/08 05:12:16;;;;;;;25.33;15.45;;;2.70;99.90;;;;;;5028499;28;20143;-76
2023/04/08 05:14:42;;;;;;;25.25;15.20;;;2.70;99.90;;;;;;5031446;28;20549;-76
2023/04/08 05:17:08;;;;;;;26.42;16.65;;;2.70;99.90;;;;;;5029054;28;20076;-76
2023/04/08 05:19:33;;;;;;;24.20;15.20;;;2.80;99.90;;;;;;5034480;28;20123;-76
2023/04/08 05:21:59;;;;;;;23.27;14.52;;;2.80;99.90;;;;;;5031068;28;20091;-77
2023/04/08 05:24:25;;;;;;;26.20;15.63;;;2.90;99.90;;;;;;5047623;28;20045;-76
2023/04/08 05:26:51;;;;;;;23.73;14.55;;;2.80;99.90;;;;;;5024046;28;20033;-76
2023/04/08 05:29:18;;;;;;;21.75;14.52;;;2.80;99.90;;;;;;5019511;28;20125;-76
2023/04/08 05:31:45;;;;;;;20.50;13.82;;;2.90;99.90;;;;;;5035014;28;20048;-76
2023/04/08 05:34:10;;;;;;;24.13;14.77;;;2.80;99.90;;;;;;5035008;28;20045;-76
2023/04/08 05:36:36;;;;;;;24.20;14.07;;;2.80;99.90;;;;;;5032381;28;20071;-76
2023/04/08 05:39:02;;;;;;;22.45;14.07;;;2.80;99.90;;;;;;5026361;28;20049;-76
2023/04/08 05:41:28;;;;;;;22.75;14.50;;;2.80;99.90;;;;;;5052995;28;20420;-76
2023/04/08 05:43:53;;;;;;;25.60;15.05;;;2.80;99.90;;;;;;5040825;28;20052;-76
2023/04/08 05:46:19;;;;;;;23.83;15.90;;;2.80;99.90;;;;;;5043008;28;20052;-77
2023/04/08 05:48:45;;;;;;;23.73;15.48;;;2.90;99.90;;;;;;5048588;28;20051;-76
2023/04/08 05:51:16;;;;;;;23.08;15.25;;;2.80;99.90;;;;;;5027283;28;20056;-77
2023/04/08 05:53:44;;;;;;;25.02;15.13;;;2.70;99.90;;;;;;5050206;28;20079;-77
2023/04/08 05:56:10;;;;;;;26.80;16.38;;;3.50;99.90;;;;;;5041621;28;20902;-77
2023/04/08 05:58:36;;;;;;;30.48;18.65;;;2.80;99.90;;;;;;5046472;28;20665;-77
2023/04/08 06:01:02;;;;;;;27.02;17.05;;;2.80;99.90;;;;;;5046232;28;20051;-77
2023/04/08 06:03:29;;;;;;;27.15;17.85;;;2.80;99.90;;;;;;5021763;28;20043;-77
2023/04/08 06:05:55;;;;;;;29.20;18.08;;;2.80;99.90;;;;;;5037810;28;20537;-77
2023/04/08 06:08:22;;;;;;;29.83;17.98;;;2.80;99.90;;;;;;5043726;28;20059;-77
2023/04/08 06:10:51;;;;;;;29.33;19.73;;;2.80;99.90;;;;;;5040760;28;20076;-78
2023/04/08 06:13:19;;;;;;;35.78;19.85;;;2.80;99.90;;;;;;5042742;28;20086;-77
2023/04/08 06:15:44;;;;;;;30.98;19.92;;;2.90;99.90;;;;;;5052764;28;20168;-77
2023/04/08 06:18:10;;;;;;;29.27;19.23;;;2.90;99.90;;;;;;5013483;28;20057;-78
2023/04/08 06:20:36;;;;;;;30.08;19.52;;;3.00;99.90;;;;;;5039780;28;20033;-77
2023/04/08 06:23:01;;;;;;;33.05;20.38;;;3.00;99.90;;;;;;5043952;28;20045;-77
2023/04/08 06:25:27;;;;;;;35.10;22.33;;;3.00;99.90;;;;;;5053483;28;20046;-78
2023/04/08 06:27:53;;;;;;;35.28;21.63;;;3.10;99.90;;;;;;5045660;28;20051;-77
2023/04/08 06:30:18;;;;;;;35.20;21.17;;;3.50;99.90;;;;;;5056473;28;20055;-77
2023/04/08 06:32:47;;;;;;;36.90;21.88;;;3.20;99.90;;;;;;5047711;28;20040;-77
2023/04/08 06:35:13;;;;;;;32.65;20.20;;;3.20;99.90;;;;;;5042903;28;20037;-77
2023/04/08 06:37:39;;;;;;;32.17;20.77;;;3.30;99.90;;;;;;5021310;28;20096;-77
2023/04/08 06:40:05;;;;;;;35.63;21.33;;;3.40;99.90;;;;;;5028228;28;20068;-77
2023/04/08 06:42:31;;;;;;;38.15;22.52;;;3.50;99.90;;;;;;5035862;28;20077;-77
2023/04/08 06:44:57;;;;;;;36.70;22.85;;;3.60;99.90;;;;;;5047675;28;20082;-78
2023/04/08 06:47:23;;;;;;;35.15;21.35;;;3.80;99.90;;;;;;5049728;28;20044;-78
2023/04/08 06:49:49;;;;;;;36.83;22.23;;;4.00;99.90;;;;;;5045855;28;20044;-78
2023/04/08 06:52:15;;;;;;;35.83;21.70;;;4.20;99.90;;;;;;5030779;28;20044;-77
2023/04/08 06:54:41;;;;;;;33.22;19.75;;;4.40;99.90;;;;;;5039932;28;20520;-78
2023/04/08 06:57:07;;;;;;;32.38;20.63;;;4.60;99.90;;;;;;5040500;28;20045;-78
2023/04/08 06:59:33;;;;;;;29.55;19.17;;;4.80;99.90;;;;;;5052872;28;20487;-78
2023/04/08 07:01:59;;;;;;;28.45;18.33;;;5.00;99.90;;;;;;5043718;28;20070;-78
2023/04/08 07:04:25;;;;;;;28.05;18.65;;;5.30;99.90;;;;;;5053675;28;20581;-79
2023/04/08 07:06:51;;;;;;;29.50;17.75;;;5.20;99.90;;;;;;5047705;28;20151;-78
2023/04/08 07:09:16;;;;;;;33.80;18.70;;;5.30;99.90;;;;;;5052187;28;20125;-78
2023/04/08 07:11:42;;;;;;;30.52;18.83;;;5.30;99.90;;;;;;5021085;28;20037;-79
2023/04/08 07:14:08;;;;;;;27.83;17.52;;;5.40;99.90;;;;;;5032797;28;20172;-78
2023/04/08 07:16:34;;;;;;;30.50;18.05;;;5.40;99.90;;;;;;5046204;28;20044;-78
2023/04/08 07:18:59;;;;;;;24.40;16.98;;;5.40;99.90;;;;;;5033040;28;20049;-78
2023/04/08 07:21:25;;;;;;;28.17;18.50;;;5.40;99.90;;;;;;5022385;28;20032;-79
2023/04/08 07:23:51;;;;;;;29.83;17.73;;;5.50;99.90;;;;;;5035438;28;20076;-78
2023/04/08 07:26:17;;;;;;;29.95;18.05;;;5.50;99.90;;;;;;5037828;28;20643;-79
2023/04/08 07:28:43;;;;;;;30.08;20.00;;;5.60;99.90;;;;;;5031102;28;20051;-78
2023/04/08 07:31:10;;;;;;;30.63;19.10;;;5.70;99.90;;;;;;5008856;28;20049;-79
2023/04/08 07:33:36;;;;;;;29.52;19.88;;;5.80;99.90;;;;;;5013184;28;20036;-79
2023/04/08 07:36:02;;;;;;;30.70;20.50;;;5.90;99.90;;;;;;5012853;28;20044;-79
2023/04/08 07:38:27;;;;;;;32.50;20.58;;;6.00;99.90;;;;;;5027145;28;20168;-78
2023/04/08 07:40:53;;;;;;;33.13;21.60;;;6.20;99.90;;;;;;4992869;28;20057;-79
2023/04/08 07:43:19;;;;;;;33.58;21.40;;;6.20;99.90;;;;;;5027636;28;20682;-78
2023/04/08 07:45:45;;;;;;;33.78;21.75;;;6.20;99.90;;;;;;5024151;28;20124;-72
2023/04/08 07:48:11;;;;;;;33.90;21.35;;;6.30;99.90;;;;;;5006084;28;20073;-72
2023/04/08 07:50:37;;;;;;;31.92;20.60;;;6.40;99.90;;;;;;5025354;28;20455;-72
2023/04/08 07:53:02;;;;;;;32.13;21.08;;;6.50;99.90;;;;;;5019033;28;20048;-71
2023/04/08 07:55:32;;;;;;;28.30;19.65;;;6.70;99.90;;;;;;5003127;28;20118;-72
2023/04/08 07:57:58;;;;;;;29.15;19.35;;;6.70;99.90;;;;;;4986736;28;20049;-72
2023/04/08 08:00:24;;;;;;;29.50;19.90;;;6.70;99.90;;;;;;5005164;28;20045;-71
2023/04/08 08:02:50;;;;;;;27.52;18.42;;;6.60;99.90;;;;;;5008728;28;20041;-71
2023/04/08 08:05:16;;;;;;;25.75;17.48;;;6.60;99.90;;;;;;5033290;28;20056;-71
2023/04/08 08:07:41;;;;;;;27.92;17.70;;;6.60;99.90;;;;;;5035052;28;20684;-70
2023/04/08 08:10:08;;;;;;;28.05;18.60;;;6.60;99.90;;;;;;5008700;28;20074;-71
2023/04/08 08:12:34;;;;;;;29.45;19.00;;;6.60;99.90;;;;;;5000256;28;20045;-72
2023/04/08 08:15:00;;;;;;;26.67;17.77;;;6.60;99.90;;;;;;4992357;28;20442;-72
2023/04/08 08:17:28;;;;;;;29.45;18.05;;;6.80;99.90;;;;;;4998307;28;20481;-71
2023/04/08 08:19:54;;;;;;;28.08;17.75;;;6.60;99.90;;;;;;5004316;28;20045;-71
2023/04/08 08:22:20;;;;;;;28.20;18.90;;;6.50;99.90;;;;;;4994883;28;20053;-72
2023/04/08 08:24:46;;;;;;;32.30;19.17;;;6.50;99.90;;;;;;5002840;28;20144;-73
2023/04/08 08:27:12;;;;;;;30.42;18.67;;;6.50;99.90;;;;;;5011655;28;20191;-72
2023/04/08 08:29:37;;;;;;;27.25;18.25;;;6.60;99.90;;;;;;4990708;28;20048;-71
2023/04/08 08:32:03;;;;;;;27.90;17.88;;;6.60;99.90;;;;;;4990337;28;20965;-73
2023/04/08 08:34:29;;;;;;;30.00;18.33;;;6.60;99.90;;;;;;5004165;28;20051;-73
2023/04/08 08:36:55;;;;;;;27.88;18.15;;;6.60;99.90;;;;;;5001749;28;20045;-72
2023/04/08 08:39:21;;;;;;;29.38;18.15;;;6.60;99.90;;;;;;5003419;28;20063;-72
2023/04/08 08:41:47;;;;;;;27.45;18.15;;;6.60;99.90;;;;;;5009541;28;20049;-72
2023/04/08 08:44:13;;;;;;;28.73;17.73;;;6.60;99.90;;;;;;5028467;28;20067;-72
2023/04/08 08:46:47;;;;;;;26.60;17.48;;;6.60;99.90;;;;;;5007983;28;20199;-72
2023/04/08 08:49:16;;;;;;;28.27;17.10;;;6.70;99.90;;;;;;5025981;28;20784;-71
2023/04/08 08:51:45;;;;;;;28.02;18.00;;;6.70;99.90;;;;;;5029056;28;20052;-72
2023/04/08 08:54:11;;;;;;;24.77;16.65;;;7.00;99.90;;;;;;5024917;28;20395;-72
2023/04/08 08:56:37;;;;;;;28.88;17.95;;;6.70;99.90;;;;;;4986552;28;20053;-72
2023/04/08 08:59:03;;;;;;;27.55;17.73;;;6.70;99.90;;;;;;4988016;28;20444;-72
2023/04/08 09:01:30;;;;;;;27.48;17.55;;;6.70;99.90;;;;;;5004473;28;20456;-72
2023/04/08 09:04:09;;;;;;;26.48;17.88;;;6.80;99.90;;;;;;5020636;28;20048;-71
2023/04/08 09:06:36;;;;;;;29.55;19.00;;;6.70;99.90;;;;;;5006381;28;22574;-72
2023/04/08 09:09:04;;;;;;;34.42;20.27;;;6.70;99.90;;;;;;5012105;28;20120;-72
2023/04/08 09:11:32;;;;;;;32.92;19.85;;;6.70;99.90;;;;;;5027876;28;20045;-71
2023/04/08 09:13:58;;;;;;;28.27;19.15;;;6.60;99.90;;;;;;5010323;28;21934;-72
2023/04/08 09:16:23;;;;;;;28.95;17.70;;;6.60;99.90;;;;;;5012478;28;20052;-72
2023/04/08 09:18:49;;;;;;;26.95;16.85;;;6.60;99.90;;;;;;4995305;28;20119;-72
2023/04/08 09:21:17;;;;;;;28.23;17.77;;;6.60;99.90;;;;;;4991532;28;20481;-72
2023/04/08 09:23:45;;;;;;;22.98;14.85;;;6.60;99.90;;;;;;5023445;28;20037;-72
2023/04/08 09:26:31;;;;;;;20.77;13.57;;;6.60;99.90;;;;;;5027289;28;20049;-72
2023/04/08 09:29:07;;;;;;;22.30;13.73;;;6.60;99.90;;;;;;4999013;28;20171;-72
2023/04/08 09:31:40;;;;;;;21.00;14.00;;;6.60;99.90;;;;;;5012071;28;20032;-72
2023/04/08 09:34:11;;;;;;;20.85;13.32;;;7.10;99.90;;;;;;5016839;28;20041;-71
2023/04/08 09:36:37;;;;;;;18.05;11.80;;;6.60;99.90;;;;;;5033312;28;20044;-72
2023/04/08 09:39:03;;;;;;;20.92;12.65;;;6.90;99.90;;;;;;5008865;28;20732;-72
2023/04/08 09:41:36;;;;;;;18.70;12.05;;;6.60;99.90;;;;;;5002463;28;20091;-72
2023/04/08 09:44:06;;;;;;;20.60;12.40;;;6.60;99.90;;;;;;5027027;28;20060;-72
2023/04/08 09:47:19;;;;;;;18.50;12.75;;;6.60;99.90;;;;;;5011809;28;20488;-72
2023/04/08 09:50:02;;;;;;;20.95;12.13;;;6.60;99.90;;;;;;5022794;28;20080;-72
2023/04/08 09:52:43;;;;;;;20.48;12.55;;;6.60;99.90;;;;;;5030354;28;20052;-72
2023/04/08 09:55:16;;;;;;;19.23;12.57;;;6.60;99.90;;;;;;5029428;28;20119;-72
2023/04/08 09:58:07;;;;;;;19.52;11.13;;;6.60;99.90;;;;;;5041162;28;20048;-72
2023/04/08 10:00:49;;;;;;;18.90;12.10;;;6.70;99.90;;;;;;5027835;28;20041;-72
2023/04/08 10:03:14;;;;;;;;;;;6.70;99.90;;;;;;5032231;28;20052;-72
2023/04/08 10:05:42;;;;;;;21.90;12.45;;;6.80;99.90;;;;;;5031592;28;19975;-72
2023/04/08 10:08:09;;;;;;;21.77;12.80;;;6.80;99.90;;;;;;5014263;28;20045;-71
2023/04/08 10:10:37;;;;;;;22.27;13.45;;;6.80;99.90;;;;;;5041973;28;20068;-72
2023/04/08 10:13:04;;;;;;;22.77;13.10;;;6.90;99.90;;;;;;5012923;28;20049;-73
2023/04/08 10:15:37;;;;;;;24.20;14.85;;;6.90;99.90;;;;;;5033892;28;20055;-72
2023/04/08 10:18:05;;;;;;;22.63;14.10;;;7.00;99.90;;;;;;5036831;28;20055;-72
2023/04/08 10:20:37;;;;;;;20.73;12.60;;;7.10;99.90;;;;;;5016703;28;20114;-72
2023/04/08 10:23:04;;;;;;;21.85;13.70;;;7.10;99.90;;;;;;5034055;28;20426;-72
2023/04/08 10:25:44;;;;;;;24.77;13.88;;;7.20;99.90;;;;;;5003773;28;20055;-71
2023/04/08 10:28:16;;;;;;;26.02;15.40;;;7.30;99.90;;;;;;5003975;28;20056;-74
2023/04/08 10:30:44;;;;;;;24.30;14.88;;;7.30;99.90;;;;;;5021461;28;20692;-73
2023/04/08 10:33:17;;;;;;;24.48;15.75;;;7.30;99.90;;;;;;5017385;28;20053;-72
2023/04/08 10:35:46;;;;;;;24.73;15.15;;;7.40;99.90;;;;;;5036476;28;20542;-72
2023/04/08 10:38:16;;;;;;;25.90;16.10;;;7.70;99.90;;;;;;5020885;28;20628;-73
2023/04/08 10:40:46;;;;;;;22.38;14.77;;;7.40;99.90;;;;;;5004551;28;20068;-72
2023/04/08 10:43:14;;;;;;;25.02;15.20;;;7.40;99.90;;;;;;5020489;28;20057;-79
2023/04/08 10:45:41;;;;;;;22.38;14.77;;;7.50;99.90;;;;;;5038070;28;20052;-78
2023/04/08 10:48:23;;;;;;;23.85;15.27;;;7.50;99.90;;;;;;5005778;28;20132;-78
2023/04/08 10:50:59;;;;;;;24.30;14.88;;;7.50;99.90;;;;;;5002673;28;20053;-81
2023/04/08 10:53:31;;;;;;;24.73;15.02;;;7.50;99.90;;;;;;5036819;28;20045;-81
2023/04/08 10:56:14;;;;;;;23.23;13.93;;;7.60;99.90;;;;;;5039260;28;20043;-79
2023/04/08 10:58:51;;;;;;;23.05;13.77;;;7.60;99.90;;;;;;5040861;28;20674;-79
2023/04/08 11:01:18;;;;;;;22.27;13.25;;;7.70;99.90;;;;;;5023718;28;20049;-79
2023/04/08 11:03:47;;;;;;;20.40;12.80;;;7.80;99.90;;;;;;5050421;28;20033;-80
2023/04/08 11:06:14;;;;;;;21.52;12.82;;;7.80;99.90;;;;;;5023351;28;20497;-79
2023/04/08 11:08:40;;;;;;;22.10;13.50;;;7.80;99.90;;;;;;5049429;28;20044;-78
2023/04/08 11:11:10;;;;;;;22.20;13.40;;;7.80;99.90;;;;;;5037298;28;20048;-79
2023/04/08 11:13:44;;;;;;;24.67;14.27;;;7.90;99.90;;;;;;5019798;28;20094;-79
2023/04/08 11:16:12;;;;;;;24.30;14.40;;;7.90;99.90;;;;;;5047611;28;20045;-80
2023/04/08 11:18:39;;;;;;;24.92;15.52;;;8.00;99.90;;;;;;5014896;28;20406;-80
2023/04/08 11:21:09;;;;;;;24.45;15.10;;;8.10;99.90;;;;;;5016240;28;20132;-79
2023/04/08 11:23:37;;;;;;;27.95;15.32;;;8.00;99.90;;;;;;5038240;28;20094;-79
2023/04/08 11:26:03;;;;;;;29.77;17.30;;;8.10;99.90;;;;;;5050105;28;20390;-79
2023/04/08 11:28:30;;;;;;;29.65;17.63;;;8.10;99.90;;;;;;5050792;28;20051;-79
2023/04/08 11:30:56;;;;;;;27.67;18.27;;;8.60;99.90;;;;;;5040550;28;20037;-79
2023/04/08 11:33:26;;;;;;;33.53;19.58;;;8.40;99.90;;;;;;5029199;28;20048;-80
2023/04/08 11:35:51;;;;;;;32.92;18.92;;;8.20;99.90;;;;;;5016777;28;20048;-79
2023/04/08 11:38:22;;;;;;;32.08;18.17;;;8.30;99.90;;;;;;5033960;28;20041;-78
2023/04/08 11:40:55;;;;;;;30.37;18.50;;;8.30;99.90;;;;;;5037351;28;20044;-80
2023/04/08 11:43:21;;;;;;;34.17;19.85;;;8.30;99.90;;;;;;5041410;28;20119;-79
2023/04/08 11:45:46;;;;;;;35.60;19.50;;;8.30;99.90;;;;;;5013017;28;20052;-79
2023/04/08 11:48:15;;;;;;;29.67;18.60;;;8.30;99.90;;;;;;5028087;28;20040;-79
2023/04/08 11:50:42;;;;;;;33.17;19.73;;;8.30;99.90;;;;;;5033445;28;20758;-79
2023/04/08 11:53:23;;;;;;;31.55;17.67;;;8.30;99.90;;;;;;5028686;28;20062;-79
2023/04/08 11:55:49;;;;;;;;;;;8.40;99.90;;;;;;5028823;28;20394;-79
2023/04/08 11:58:15;;;;;;;31.55;17.92;;;8.40;99.90;;;;;;5034041;28;19932;-79
2023/04/08 12:00:42;;;;;;;30.98;18.88;;;8.40;99.90;;;;;;5031036;28;20051;-79
2023/04/08 12:03:08;;;;;;;32.70;18.92;;;8.40;99.90;;;;;;5012065;28;20041;-79
2023/04/08 12:05:34;;;;;;;36.70;19.45;;;8.40;99.90;;;;;;5019082;28;20261;-78
2023/04/08 12:08:00;;;;;;;31.23;18.40;;;8.50;99.90;;;;;;5041923;28;20598;-77
2023/04/08 12:10:26;;;;;;;31.70;18.05;;;8.40;99.90;;;;;;5033964;28;20604;-78
2023/04/08 12:12:52;;;;;;;36.30;20.77;;;8.50;99.90;;;;;;5025046;28;20036;-79
2023/04/08 12:15:18;;;;;;;40.00;20.75;;;8.50;99.90;;;;;;5026859;28;20044;-80
2023/04/08 12:17:47;;;;;;;35.60;20.63;;;8.50;99.90;;;;;;5031303;28;20041;-79
2023/04/08 12:20:13;;;;;;;37.58;20.25;;;8.60;99.90;;;;;;5022351;28;20048;-80
2023/04/08 12:22:39;;;;;;;37.20;20.88;;;8.60;99.90;;;;;;5053038;28;20048;-79
2023/04/08 12:25:05;;;;;;;33.90;20.40;;;8.60;99.90;;;;;;5037288;28;20119;-80
2023/04/08 12:27:34;;;;;;;34.63;18.60;;;8.60;99.90;;;;;;5034527;28;20701;-79
2023/04/08 12:30:01;;;;;;;37.55;20.45;;;8.70;99.90;;;;;;5030653;28;20041;-78
2023/04/08 12:32:27;;;;;;;33.40;20.65;;;8.70;99.90;;;;;;5048595;28;20048;-79
2023/04/08 12:34:53;;;;;;;39.25;20.10;;;8.70;99.90;;;;;;5031954;28;20048;-80
2023/04/08 12:37:21;;;;;;;29.58;20.30;;;8.80;99.90;;;;;;5032620;28;20128;-80
2023/04/08 12:39:47;;;;;;;37.83;19.83;;;8.80;99.90;;;;;;5042707;28;20083;-80